sensor_id;sensor_type;location;lat;lon;timestamp;P1;durP1;ratioP1;P2;durP2;ratioP2
84187;SDS011;76752;45.648;13.764;2024-02-28T00:01:37;15.10;;;8.32;;
84187;SDS011;76752;45.648;13.764;2024-02-28T00:04:03;17.73;;;8.38;;
84187;SDS011;76752;45.648;13.764;2024-02-28T00:06:29;13.77;;;8.07;;
84187;SDS011;76752;45.648;13.764;2024-02-28T00:08:54;16.25;;;7.80;;
84187;SDS011;76752;45.648;13.764;2024-02-28T00:11:20;13.70;;;7.97;;
84187;SDS011;76752;45.648;13.764;2024-02-28T00:13:46;10.55;;;7.07;;
84187;SDS011;76752;45.648;13.764;2024-02-28T00:16:13;12.68;;;7.60;;
84187;SDS011;76752;45.648;13.764;2024-02-28T00:18:39;12.40;;;7.72;;
84187;SDS011;76752;45.648;13.764;2024-02-28T00:21:06;14.93;;;7.63;;
84187;SDS011;76752;45.648;13.764;2024-02-28T00:23:32;15.48;;;7.90;;
84187;SDS011;76752;45.648;13.764;2024-02-28T00:25:59;13.05;;;7.80;;
84187;SDS011;76752;45.648;13.764;2024-02-28T00:28:26;13.95;;;7.53;;
84187;SDS011;76752;45.648;13.764;2024-02-28T00:30:52;13.20;;;7.25;;
84187;SDS011;76752;45.648;13.764;2024-02-28T00:33:18;11.60;;;7.40;;
84187;SDS011;76752;45.648;13.764;2024-02-28T00:35:45;11.35;;;7.25;;
84187;SDS011;76752;45.648;13.764;2024-02-28T00:38:11;10.73;;;7.00;;
84187;SDS011;76752;45.648;13.764;2024-02-28T00:40:38;10.18;;;6.75;;
84187;SDS011;76752;45.648;13.764;2024-02-28T00:43:04;13.82;;;7.35;;
84187;SDS011;76752;45.648;13.764;2024-02-28T00:45:30;12.07;;;7.70;;
84187;SDS011;76752;45.648;13.764;2024-02-28T00:47:57;11.25;;;7.10;;
84187;SDS011;76752;45.648;13.764;2024-02-28T00:50:22;11.43;;;6.85;;
84187;SDS011;76752;45.648;13.764;2024-02-28T00:52:49;11.48;;;7.25;;
84187;SDS011;76752;45.648;13.764;2024-02-28T00:55:16;12.70;;;7.03;;
84187;SDS011;76752;45.648;13.764;2024-02-28T00:57:42;9.98;;;6.80;;
84187;SDS011;76752;45.648;13.764;2024-02-28T01:00:09;9.80;;;6.97;;
84187;SDS011;76752;45.648;13.764;2024-02-28T01:02:36;11.93;;;7.10;;
84187;SDS011;76752;45.648;13.764;2024-02-28T01:05:02;12.48;;;7.22;;
84187;SDS011;76752;45.648;13.764;2024-02-28T01:07:29;11.73;;;7.10;;
84187;SDS011;76752;45.648;13.764;2024-02-28T01:09:55;10.10;;;6.95;;
84187;SDS011;76752;45.648;13.764;2024-02-28T01:12:22;11.57;;;6.68;;
84187;SDS011;76752;45.648;13.764;2024-02-28T01:14:48;10.65;;;6.75;;
84187;SDS011;76752;45.648;13.764;2024-02-28T01:17:13;10.70;;;6.55;;
84187;SDS011;76752;45.648;13.764;2024-02-28T01:19:39;9.85;;;6.57;;
84187;SDS011;76752;45.648;13.764;2024-02-28T01:22:06;13.68;;;7.25;;
84187;SDS011;76752;45.648;13.764;2024-02-28T01:24:32;10.57;;;6.78;;
84187;SDS011;76752;45.648;13.764;2024-02-28T01:26:58;10.75;;;6.40;;
84187;SDS011;76752;45.648;13.764;2024-02-28T01:29:25;14.00;;;6.80;;
84187;SDS011;76752;45.648;13.764;2024-02-28T01:31:51;11.70;;;7.18;;
84187;SDS011;76752;45.648;13.764;2024-02-28T01:34:17;9.88;;;6.57;;
84187;SDS011;76752;45.648;13.764;2024-02-28T01:36:43;12.00;;;6.65;;
84187;SDS011;76752;45.648;13.764;2024-02-28T01:39:10;11.05;;;6.40;;
84187;SDS011;76752;45.648;13.764;2024-02-28T01:41:35;10.13;;;6.20;;
84187;SDS011;76752;45.648;13.764;2024-02-28T01:44:01;12.75;;;6.80;;
84187;SDS011;76752;45.648;13.764;2024-02-28T01:46:27;10.43;;;6.50;;
84187;SDS011;76752;45.648;13.764;2024-02-28T01:48:54;8.75;;;6.35;;
84187;SDS011;76752;45.648;13.764;2024-02-28T01:51:22;9.35;;;6.10;;
84187;SDS011;76752;45.648;13.764;2024-02-28T01:53:52;8.45;;;6.38;;
84187;SDS011;76752;45.648;13.764;2024-02-28T01:56:19;11.40;;;6.85;;
84187;SDS011;76752;45.648;13.764;2024-02-28T01:58:46;10.82;;;6.68;;
84187;SDS011;76752;45.648;13.764;2024-02-28T02:01:13;8.60;;;6.30;;
84187;SDS011;76752;45.648;13.764;2024-02-28T02:03:40;8.15;;;5.88;;
84187;SDS011;76752;45.648;13.764;2024-02-28T02:06:06;10.88;;;6.03;;
84187;SDS011;76752;45.648;13.764;2024-02-28T02:08:32;8.85;;;6.03;;
84187;SDS011;76752;45.648;13.764;2024-02-28T02:10:58;7.78;;;5.55;;
84187;SDS011;76752;45.648;13.764;2024-02-28T02:13:24;8.93;;;6.40;;
84187;SDS011;76752;45.648;13.764;2024-02-28T02:15:50;7.15;;;5.75;;
84187;SDS011;76752;45.648;13.764;2024-02-28T02:18:16;10.05;;;5.90;;
84187;SDS011;76752;45.648;13.764;2024-02-28T02:20:43;9.35;;;6.50;;
84187;SDS011;76752;45.648;13.764;2024-02-28T02:23:11;9.80;;;5.80;;
84187;SDS011;76752;45.648;13.764;2024-02-28T02:25:45;9.68;;;6.40;;
84187;SDS011;76752;45.648;13.764;2024-02-28T02:28:11;8.18;;;5.78;;
84187;SDS011;76752;45.648;13.764;2024-02-28T02:30:38;8.93;;;6.45;;
84187;SDS011;76752;45.648;13.764;2024-02-28T02:33:05;7.85;;;5.70;;
84187;SDS011;76752;45.648;13.764;2024-02-28T02:35:33;9.32;;;5.90;;
84187;SDS011;76752;45.648;13.764;2024-02-28T02:37:59;6.25;;;5.32;;
84187;SDS011;76752;45.648;13.764;2024-02-28T02:40:25;7.57;;;6.03;;
84187;SDS011;76752;45.648;13.764;2024-02-28T02:42:51;9.02;;;6.03;;
84187;SDS011;76752;45.648;13.764;2024-02-28T02:45:17;8.63;;;6.28;;
84187;SDS011;76752;45.648;13.764;2024-02-28T02:47:43;7.07;;;5.40;;
84187;SDS011;76752;45.648;13.764;2024-02-28T02:50:09;9.05;;;5.65;;
84187;SDS011;76752;45.648;13.764;2024-02-28T02:52:35;9.00;;;5.60;;
84187;SDS011;76752;45.648;13.764;2024-02-28T02:55:01;8.55;;;5.38;;
84187;SDS011;76752;45.648;13.764;2024-02-28T02:57:27;8.80;;;5.75;;
84187;SDS011;76752;45.648;13.764;2024-02-28T02:59:53;9.90;;;5.55;;
84187;SDS011;76752;45.648;13.764;2024-02-28T03:02:18;8.25;;;5.90;;
84187;SDS011;76752;45.648;13.764;2024-02-28T03:04:48;8.45;;;5.72;;
84187;SDS011;76752;45.648;13.764;2024-02-28T03:07:14;8.73;;;5.57;;
84187;SDS011;76752;45.648;13.764;2024-02-28T03:09:40;7.15;;;5.45;;
84187;SDS011;76752;45.648;13.764;2024-02-28T03:12:06;8.13;;;5.40;;
84187;SDS011;76752;45.648;13.764;2024-02-28T03:14:32;6.47;;;5.43;;
84187;SDS011;76752;45.648;13.764;2024-02-28T03:16:58;7.50;;;5.57;;
84187;SDS011;76752;45.648;13.764;2024-02-28T03:19:24;5.90;;;5.25;;
84187;SDS011;76752;45.648;13.764;2024-02-28T03:21:50;8.38;;;6.45;;
84187;SDS011;76752;45.648;13.764;2024-02-28T03:24:16;9.80;;;5.53;;
84187;SDS011;76752;45.648;13.764;2024-02-28T03:26:42;8.25;;;5.43;;
84187;SDS011;76752;45.648;13.764;2024-02-28T03:29:08;7.35;;;5.72;;
84187;SDS011;76752;45.648;13.764;2024-02-28T03:31:35;8.10;;;5.35;;
84187;SDS011;76752;45.648;13.764;2024-02-28T03:34:01;11.30;;;5.63;;
84187;SDS011;76752;45.648;13.764;2024-02-28T03:36:28;6.93;;;5.80;;
84187;SDS011;76752;45.648;13.764;2024-02-28T03:38:54;9.85;;;5.47;;
84187;SDS011;76752;45.648;13.764;2024-02-28T03:41:20;9.90;;;5.43;;
84187;SDS011;76752;45.648;13.764;2024-02-28T03:43:46;7.38;;;5.72;;
84187;SDS011;76752;45.648;13.764;2024-02-28T03:46:12;13.10;;;5.45;;
84187;SDS011;76752;45.648;13.764;2024-02-28T03:48:38;7.40;;;5.28;;
84187;SDS011;76752;45.648;13.764;2024-02-28T03:51:04;7.97;;;5.25;;
84187;SDS011;76752;45.648;13.764;2024-02-28T03:53:30;9.00;;;5.45;;
84187;SDS011;76752;45.648;13.764;2024-02-28T03:55:56;7.47;;;5.30;;
84187;SDS011;76752;45.648;13.764;2024-02-28T03:58:22;5.88;;;5.18;;
84187;SDS011;76752;45.648;13.764;2024-02-28T04:00:48;7.55;;;5.70;;
84187;SDS011;76752;45.648;13.764;2024-02-28T04:03:14;6.22;;;5.10;;
84187;SDS011;76752;45.648;13.764;2024-02-28T04:05:41;6.60;;;5.10;;
84187;SDS011;76752;45.648;13.764;2024-02-28T04:08:08;6.10;;;4.85;;
84187;SDS011;76752;45.648;13.764;2024-02-28T04:10:34;5.85;;;5.15;;
84187;SDS011;76752;45.648;13.764;2024-02-28T04:13:03;6.05;;;5.20;;
84187;SDS011;76752;45.648;13.764;2024-02-28T04:15:32;6.80;;;5.18;;
84187;SDS011;76752;45.648;13.764;2024-02-28T04:17:58;8.68;;;5.32;;
84187;SDS011;76752;45.648;13.764;2024-02-28T04:20:24;5.93;;;5.25;;
84187;SDS011;76752;45.648;13.764;2024-02-28T04:22:50;6.80;;;5.20;;
84187;SDS011;76752;45.648;13.764;2024-02-28T04:25:17;8.50;;;5.18;;
84187;SDS011;76752;45.648;13.764;2024-02-28T04:27:42;6.75;;;5.30;;
84187;SDS011;76752;45.648;13.764;2024-02-28T04:30:09;5.53;;;4.95;;
84187;SDS011;76752;45.648;13.764;2024-02-28T04:32:38;5.68;;;4.97;;
84187;SDS011;76752;45.648;13.764;2024-02-28T04:35:07;6.25;;;4.97;;
84187;SDS011;76752;45.648;13.764;2024-02-28T04:37:33;6.35;;;5.05;;
84187;SDS011;76752;45.648;13.764;2024-02-28T04:39:59;6.82;;;4.90;;
84187;SDS011;76752;45.648;13.764;2024-02-28T04:42:25;7.05;;;5.00;;
84187;SDS011;76752;45.648;13.764;2024-02-28T04:44:51;7.13;;;4.88;;
84187;SDS011;76752;45.648;13.764;2024-02-28T04:47:17;7.95;;;4.55;;
84187;SDS011;76752;45.648;13.764;2024-02-28T04:49:43;5.65;;;4.75;;
84187;SDS011;76752;45.648;13.764;2024-02-28T04:52:09;5.10;;;4.60;;
84187;SDS011;76752;45.648;13.764;2024-02-28T04:54:35;6.55;;;4.95;;
84187;SDS011;76752;45.648;13.764;2024-02-28T04:57:01;6.93;;;5.05;;
84187;SDS011;76752;45.648;13.764;2024-02-28T04:59:27;6.13;;;4.30;;
84187;SDS011;76752;45.648;13.764;2024-02-28T05:01:53;7.13;;;4.80;;
84187;SDS011;76752;45.648;13.764;2024-02-28T05:04:19;6.80;;;5.13;;
84187;SDS011;76752;45.648;13.764;2024-02-28T05:06:45;8.05;;;4.90;;
84187;SDS011;76752;45.648;13.764;2024-02-28T05:09:11;7.78;;;5.13;;
84187;SDS011;76752;45.648;13.764;2024-02-28T05:11:38;7.15;;;4.90;;
84187;SDS011;76752;45.648;13.764;2024-02-28T05:14:04;7.47;;;5.13;;
84187;SDS011;76752;45.648;13.764;2024-02-28T05:16:30;7.28;;;4.97;;
84187;SDS011;76752;45.648;13.764;2024-02-28T05:18:55;7.95;;;5.05;;
84187;SDS011;76752;45.648;13.764;2024-02-28T05:21:22;7.15;;;4.97;;
84187;SDS011;76752;45.648;13.764;2024-02-28T05:23:47;4.97;;;4.47;;
84187;SDS011;76752;45.648;13.764;2024-02-28T05:26:14;5.45;;;4.70;;
84187;SDS011;76752;45.648;13.764;2024-02-28T05:28:39;7.78;;;4.65;;
84187;SDS011;76752;45.648;13.764;2024-02-28T05:31:20;6.55;;;4.78;;
84187;SDS011;76752;45.648;13.764;2024-02-28T05:33:50;5.22;;;4.50;;
84187;SDS011;76752;45.648;13.764;2024-02-28T05:36:16;5.70;;;5.15;;
84187;SDS011;76752;45.648;13.764;2024-02-28T05:38:41;8.38;;;4.55;;
84187;SDS011;76752;45.648;13.764;2024-02-28T05:41:08;7.47;;;4.78;;
84187;SDS011;76752;45.648;13.764;2024-02-28T05:43:34;6.30;;;4.40;;
84187;SDS011;76752;45.648;13.764;2024-02-28T05:46:02;4.57;;;4.22;;
84187;SDS011;76752;45.648;13.764;2024-02-28T05:48:27;7.03;;;4.60;;
84187;SDS011;76752;45.648;13.764;2024-02-28T05:50:54;6.97;;;4.43;;
84187;SDS011;76752;45.648;13.764;2024-02-28T05:53:20;7.45;;;4.30;;
84187;SDS011;76752;45.648;13.764;2024-02-28T05:55:46;6.03;;;4.63;;
84187;SDS011;76752;45.648;13.764;2024-02-28T05:58:15;5.80;;;4.80;;
84187;SDS011;76752;45.648;13.764;2024-02-28T06:00:42;12.45;;;5.53;;
84187;SDS011;76752;45.648;13.764;2024-02-28T06:03:12;9.35;;;4.85;;
84187;SDS011;76752;45.648;13.764;2024-02-28T06:05:37;11.57;;;4.38;;
84187;SDS011;76752;45.648;13.764;2024-02-28T06:08:03;6.80;;;4.70;;
84187;SDS011;76752;45.648;13.764;2024-02-28T06:10:31;6.47;;;4.88;;
84187;SDS011;76752;45.648;13.764;2024-02-28T06:12:58;7.15;;;4.50;;
84187;SDS011;76752;45.648;13.764;2024-02-28T06:15:25;9.18;;;4.47;;
84187;SDS011;76752;45.648;13.764;2024-02-28T06:17:51;10.25;;;4.68;;
84187;SDS011;76752;45.648;13.764;2024-02-28T06:20:17;9.75;;;4.93;;
84187;SDS011;76752;45.648;13.764;2024-02-28T06:22:44;6.72;;;4.07;;
84187;SDS011;76752;45.648;13.764;2024-02-28T06:25:10;6.03;;;4.20;;
84187;SDS011;76752;45.648;13.764;2024-02-28T06:27:44;7.70;;;4.22;;
84187;SDS011;76752;45.648;13.764;2024-02-28T06:30:10;7.18;;;4.38;;
84187;SDS011;76752;45.648;13.764;2024-02-28T06:32:37;12.02;;;4.43;;
84187;SDS011;76752;45.648;13.764;2024-02-28T06:35:03;8.75;;;4.53;;
84187;SDS011;76752;45.648;13.764;2024-02-28T06:37:30;10.48;;;4.63;;
84187;SDS011;76752;45.648;13.764;2024-02-28T06:39:56;14.40;;;4.70;;
84187;SDS011;76752;45.648;13.764;2024-02-28T06:42:23;9.50;;;4.22;;
84187;SDS011;76752;45.648;13.764;2024-02-28T06:44:49;15.25;;;4.68;;
84187;SDS011;76752;45.648;13.764;2024-02-28T06:47:15;12.45;;;4.80;;
84187;SDS011;76752;45.648;13.764;2024-02-28T06:49:41;8.30;;;4.18;;
84187;SDS011;76752;45.648;13.764;2024-02-28T06:52:10;17.15;;;4.50;;
84187;SDS011;76752;45.648;13.764;2024-02-28T06:54:36;9.52;;;4.50;;
84187;SDS011;76752;45.648;13.764;2024-02-28T06:57:02;12.40;;;4.88;;
84187;SDS011;76752;45.648;13.764;2024-02-28T06:59:27;13.48;;;4.72;;
84187;SDS011;76752;45.648;13.764;2024-02-28T07:01:57;8.82;;;4.20;;
84187;SDS011;76752;45.648;13.764;2024-02-28T07:04:24;12.52;;;4.03;;
84187;SDS011;76752;45.648;13.764;2024-02-28T07:06:50;6.57;;;4.63;;
84187;SDS011;76752;45.648;13.764;2024-02-28T07:09:18;8.82;;;4.95;;
84187;SDS011;76752;45.648;13.764;2024-02-28T07:11:45;8.52;;;4.35;;
84187;SDS011;76752;45.648;13.764;2024-02-28T07:14:11;10.13;;;4.43;;
84187;SDS011;76752;45.648;13.764;2024-02-28T07:16:37;9.60;;;4.47;;
84187;SDS011;76752;45.648;13.764;2024-02-28T07:19:04;11.10;;;4.45;;
84187;SDS011;76752;45.648;13.764;2024-02-28T07:21:50;9.32;;;4.18;;
84187;SDS011;76752;45.648;13.764;2024-02-28T07:24:16;11.27;;;4.28;;
84187;SDS011;76752;45.648;13.764;2024-02-28T07:26:45;10.35;;;4.35;;
84187;SDS011;76752;45.648;13.764;2024-02-28T07:29:11;8.15;;;4.60;;
84187;SDS011;76752;45.648;13.764;2024-02-28T07:31:37;8.27;;;4.35;;
84187;SDS011;76752;45.648;13.764;2024-02-28T07:34:05;9.10;;;4.20;;
84187;SDS011;76752;45.648;13.764;2024-02-28T07:36:31;7.70;;;4.30;;
84187;SDS011;76752;45.648;13.764;2024-02-28T07:39:00;13.63;;;4.40;;
84187;SDS011;76752;45.648;13.764;2024-02-28T07:41:26;7.70;;;4.10;;
84187;SDS011;76752;45.648;13.764;2024-02-28T07:43:53;10.98;;;4.20;;
84187;SDS011;76752;45.648;13.764;2024-02-28T07:46:20;8.90;;;4.13;;
84187;SDS011;76752;45.648;13.764;2024-02-28T07:48:47;8.57;;;3.45;;
84187;SDS011;76752;45.648;13.764;2024-02-28T07:51:14;8.75;;;4.03;;
84187;SDS011;76752;45.648;13.764;2024-02-28T07:53:40;10.40;;;4.50;;
84187;SDS011;76752;45.648;13.764;2024-02-28T07:56:06;12.80;;;4.35;;
84187;SDS011;76752;45.648;13.764;2024-02-28T07:58:33;5.70;;;3.97;;
84187;SDS011;76752;45.648;13.764;2024-02-28T08:00:59;6.78;;;3.80;;
84187;SDS011;76752;45.648;13.764;2024-02-28T08:03:24;5.70;;;4.15;;
84187;SDS011;76752;45.648;13.764;2024-02-28T08:05:50;6.78;;;3.80;;
84187;SDS011;76752;45.648;13.764;2024-02-28T08:08:17;8.05;;;3.95;;
84187;SDS011;76752;45.648;13.764;2024-02-28T08:10:43;6.07;;;3.90;;
84187;SDS011;76752;45.648;13.764;2024-02-28T08:13:11;7.85;;;4.25;;
84187;SDS011;76752;45.648;13.764;2024-02-28T08:15:39;8.38;;;4.15;;
84187;SDS011;76752;45.648;13.764;2024-02-28T08:18:05;5.70;;;3.70;;
84187;SDS011;76752;45.648;13.764;2024-02-28T08:20:32;5.63;;;4.00;;
84187;SDS011;76752;45.648;13.764;2024-02-28T08:22:59;5.22;;;4.00;;
84187;SDS011;76752;45.648;13.764;2024-02-28T08:25:25;5.90;;;3.95;;
84187;SDS011;76752;45.648;13.764;2024-02-28T08:27:51;7.82;;;3.63;;
84187;SDS011;76752;45.648;13.764;2024-02-28T08:30:17;5.25;;;3.78;;
84187;SDS011;76752;45.648;13.764;2024-02-28T08:32:44;5.30;;;3.60;;
84187;SDS011;76752;45.648;13.764;2024-02-28T08:35:09;11.55;;;4.05;;
84187;SDS011;76752;45.648;13.764;2024-02-28T08:37:38;4.18;;;3.75;;
84187;SDS011;76752;45.648;13.764;2024-02-28T08:40:04;7.95;;;3.83;;
84187;SDS011;76752;45.648;13.764;2024-02-28T08:42:32;6.00;;;4.00;;
84187;SDS011;76752;45.648;13.764;2024-02-28T08:45:00;6.90;;;3.75;;
84187;SDS011;76752;45.648;13.764;2024-02-28T08:47:26;7.90;;;4.00;;
84187;SDS011;76752;45.648;13.764;2024-02-28T08:49:53;9.23;;;3.55;;
84187;SDS011;76752;45.648;13.764;2024-02-28T08:52:19;6.45;;;4.32;;
84187;SDS011;76752;45.648;13.764;2024-02-28T08:54:45;4.72;;;3.60;;
84187;SDS011;76752;45.648;13.764;2024-02-28T08:57:11;5.95;;;3.97;;
84187;SDS011;76752;45.648;13.764;2024-02-28T08:59:37;6.65;;;3.88;;
84187;SDS011;76752;45.648;13.764;2024-02-28T09:02:03;7.85;;;3.92;;
84187;SDS011;76752;45.648;13.764;2024-02-28T09:04:29;6.53;;;3.63;;
84187;SDS011;76752;45.648;13.764;2024-02-28T09:06:55;4.57;;;3.33;;
84187;SDS011;76752;45.648;13.764;2024-02-28T09:09:21;5.75;;;4.00;;
84187;SDS011;76752;45.648;13.764;2024-02-28T09:11:47;4.55;;;3.72;;
84187;SDS011;76752;45.648;13.764;2024-02-28T09:14:13;4.65;;;3.70;;
84187;SDS011;76752;45.648;13.764;2024-02-28T09:16:40;6.10;;;3.72;;
84187;SDS011;76752;45.648;13.764;2024-02-28T09:19:06;4.63;;;3.80;;
84187;SDS011;76752;45.648;13.764;2024-02-28T09:21:31;5.13;;;3.75;;
84187;SDS011;76752;45.648;13.764;2024-02-28T09:23:57;7.25;;;3.38;;
84187;SDS011;76752;45.648;13.764;2024-02-28T09:26:23;4.25;;;3.33;;
84187;SDS011;76752;45.648;13.764;2024-02-28T09:28:53;5.13;;;3.63;;
84187;SDS011;76752;45.648;13.764;2024-02-28T09:31:20;4.40;;;3.63;;
84187;SDS011;76752;45.648;13.764;2024-02-28T09:33:46;5.47;;;3.55;;
84187;SDS011;76752;45.648;13.764;2024-02-28T09:36:13;4.43;;;3.30;;
84187;SDS011;76752;45.648;13.764;2024-02-28T09:38:39;4.18;;;3.47;;
84187;SDS011;76752;45.648;13.764;2024-02-28T09:41:06;4.22;;;3.33;;
84187;SDS011;76752;45.648;13.764;2024-02-28T09:43:34;5.22;;;3.45;;
84187;SDS011;76752;45.648;13.764;2024-02-28T09:46:05;5.57;;;3.40;;
84187;SDS011;76752;45.648;13.764;2024-02-28T09:48:35;4.15;;;3.60;;
84187;SDS011;76752;45.648;13.764;2024-02-28T09:51:03;7.60;;;3.90;;
84187;SDS011;76752;45.648;13.764;2024-02-28T09:53:29;4.93;;;3.40;;
84187;SDS011;76752;45.648;13.764;2024-02-28T09:55:55;5.80;;;3.53;;
84187;SDS011;76752;45.648;13.764;2024-02-28T09:58:21;3.88;;;3.47;;
84187;SDS011;76752;45.648;13.764;2024-02-28T10:00:48;6.78;;;3.55;;
84187;SDS011;76752;45.648;13.764;2024-02-28T10:03:17;5.20;;;3.20;;
84187;SDS011;76752;45.648;13.764;2024-02-28T10:05:48;4.45;;;3.60;;
84187;SDS011;76752;45.648;13.764;2024-02-28T10:08:14;4.15;;;3.70;;
84187;SDS011;76752;45.648;13.764;2024-02-28T10:10:49;4.10;;;3.13;;
84187;SDS011;76752;45.648;13.764;2024-02-28T10:13:19;6.63;;;3.65;;
84187;SDS011;76752;45.648;13.764;2024-02-28T10:15:45;3.70;;;3.10;;
84187;SDS011;76752;45.648;13.764;2024-02-28T10:18:13;7.63;;;3.58;;
84187;SDS011;76752;45.648;13.764;2024-02-28T10:20:39;4.13;;;3.30;;
84187;SDS011;76752;45.648;13.764;2024-02-28T10:23:05;3.67;;;3.30;;
84187;SDS011;76752;45.648;13.764;2024-02-28T10:25:32;6.78;;;4.07;;
84187;SDS011;76752;45.648;13.764;2024-02-28T10:28:01;4.28;;;3.35;;
84187;SDS011;76752;45.648;13.764;2024-02-28T10:30:27;5.18;;;3.42;;
84187;SDS011;76752;45.648;13.764;2024-02-28T10:32:53;4.53;;;3.10;;
84187;SDS011;76752;45.648;13.764;2024-02-28T10:35:19;6.30;;;3.38;;
84187;SDS011;76752;45.648;13.764;2024-02-28T10:37:44;5.55;;;3.65;;
84187;SDS011;76752;45.648;13.764;2024-02-28T10:40:12;3.75;;;3.30;;
84187;SDS011;76752;45.648;13.764;2024-02-28T10:42:39;6.40;;;3.40;;
84187;SDS011;76752;45.648;13.764;2024-02-28T10:45:11;7.40;;;3.50;;
84187;SDS011;76752;45.648;13.764;2024-02-28T10:47:40;4.17;;;3.13;;
84187;SDS011;76752;45.648;13.764;2024-02-28T10:50:06;3.63;;;3.05;;
84187;SDS011;76752;45.648;13.764;2024-02-28T10:52:36;4.90;;;3.30;;
84187;SDS011;76752;45.648;13.764;2024-02-28T10:55:08;4.85;;;3.50;;
84187;SDS011;76752;45.648;13.764;2024-02-28T10:57:35;5.60;;;3.45;;
84187;SDS011;76752;45.648;13.764;2024-02-28T11:00:01;4.60;;;3.35;;
84187;SDS011;76752;45.648;13.764;2024-02-28T11:02:30;8.75;;;3.30;;
84187;SDS011;76752;45.648;13.764;2024-02-28T11:04:57;3.83;;;3.25;;
84187;SDS011;76752;45.648;13.764;2024-02-28T11:07:26;4.80;;;3.63;;
84187;SDS011;76752;45.648;13.764;2024-02-28T11:09:54;4.68;;;3.30;;
84187;SDS011;76752;45.648;13.764;2024-02-28T11:12:27;5.55;;;3.25;;
84187;SDS011;76752;45.648;13.764;2024-02-28T11:14:57;3.72;;;2.95;;
84187;SDS011;76752;45.648;13.764;2024-02-28T11:17:27;3.92;;;3.10;;
84187;SDS011;76752;45.648;13.764;2024-02-28T11:19:55;5.03;;;3.22;;
84187;SDS011;76752;45.648;13.764;2024-02-28T11:22:21;3.78;;;3.25;;
84187;SDS011;76752;45.648;13.764;2024-02-28T11:24:47;3.97;;;3.20;;
84187;SDS011;76752;45.648;13.764;2024-02-28T11:27:14;3.22;;;2.92;;
84187;SDS011;76752;45.648;13.764;2024-02-28T11:29:40;4.80;;;3.40;;
84187;SDS011;76752;45.648;13.764;2024-02-28T11:32:07;3.63;;;3.05;;
84187;SDS011;76752;45.648;13.764;2024-02-28T11:34:34;3.53;;;3.10;;
84187;SDS011;76752;45.648;13.764;2024-02-28T11:37:00;6.53;;;3.13;;
84187;SDS011;76752;45.648;13.764;2024-02-28T11:39:25;3.70;;;3.10;;
84187;SDS011;76752;45.648;13.764;2024-02-28T11:41:51;4.78;;;2.90;;
84187;SDS011;76752;45.648;13.764;2024-02-28T11:44:18;4.03;;;3.10;;
84187;SDS011;76752;45.648;13.764;2024-02-28T11:46:45;3.63;;;3.28;;
84187;SDS011;76752;45.648;13.764;2024-02-28T11:49:14;4.18;;;3.03;;
84187;SDS011;76752;45.648;13.764;2024-02-28T11:51:41;7.82;;;3.10;;
84187;SDS011;76752;45.648;13.764;2024-02-28T11:54:08;4.43;;;2.85;;
84187;SDS011;76752;45.648;13.764;2024-02-28T11:56:36;4.80;;;3.60;;
84187;SDS011;76752;45.648;13.764;2024-02-28T11:59:05;4.03;;;3.33;;
84187;SDS011;76752;45.648;13.764;2024-02-28T12:01:40;4.78;;;3.38;;
84187;SDS011;76752;45.648;13.764;2024-02-28T12:04:08;5.40;;;3.00;;
84187;SDS011;76752;45.648;13.764;2024-02-28T12:06:35;4.38;;;2.90;;
84187;SDS011;76752;45.648;13.764;2024-02-28T12:09:08;5.38;;;2.80;;
84187;SDS011;76752;45.648;13.764;2024-02-28T12:11:37;7.03;;;2.83;;
84187;SDS011;76752;45.648;13.764;2024-02-28T12:14:03;4.00;;;3.22;;
84187;SDS011;76752;45.648;13.764;2024-02-28T12:16:32;4.50;;;3.17;;
84187;SDS011;76752;45.648;13.764;2024-02-28T12:18:58;5.75;;;3.22;;
84187;SDS011;76752;45.648;13.764;2024-02-28T12:21:24;5.50;;;3.33;;
84187;SDS011;76752;45.648;13.764;2024-02-28T12:23:50;6.53;;;3.13;;
84187;SDS011;76752;45.648;13.764;2024-02-28T12:26:19;6.30;;;3.25;;
84187;SDS011;76752;45.648;13.764;2024-02-28T12:28:46;5.40;;;2.80;;
84187;SDS011;76752;45.648;13.764;2024-02-28T12:31:12;4.97;;;3.10;;
84187;SDS011;76752;45.648;13.764;2024-02-28T12:33:38;15.38;;;3.30;;
84187;SDS011;76752;45.648;13.764;2024-02-28T12:36:04;6.65;;;3.28;;
84187;SDS011;76752;45.648;13.764;2024-02-28T12:38:30;6.25;;;3.25;;
84187;SDS011;76752;45.648;13.764;2024-02-28T12:40:56;6.95;;;3.00;;
84187;SDS011;76752;45.648;13.764;2024-02-28T12:43:22;6.63;;;2.90;;
84187;SDS011;76752;45.648;13.764;2024-02-28T12:45:48;8.07;;;3.33;;
84187;SDS011;76752;45.648;13.764;2024-02-28T12:48:14;7.43;;;3.50;;
84187;SDS011;76752;45.648;13.764;2024-02-28T12:50:41;4.45;;;3.30;;
84187;SDS011;76752;45.648;13.764;2024-02-28T12:53:07;6.05;;;3.33;;
84187;SDS011;76752;45.648;13.764;2024-02-28T12:55:34;4.75;;;3.20;;
84187;SDS011;76752;45.648;13.764;2024-02-28T12:58:00;5.50;;;3.13;;
84187;SDS011;76752;45.648;13.764;2024-02-28T13:00:29;4.00;;;2.90;;
84187;SDS011;76752;45.648;13.764;2024-02-28T13:02:55;4.90;;;3.20;;
84187;SDS011;76752;45.648;13.764;2024-02-28T13:05:21;4.32;;;3.13;;
84187;SDS011;76752;45.648;13.764;2024-02-28T13:07:48;6.97;;;3.00;;
84187;SDS011;76752;45.648;13.764;2024-02-28T13:10:14;4.05;;;3.08;;
84187;SDS011;76752;45.648;13.764;2024-02-28T13:12:40;7.20;;;3.60;;
84187;SDS011;76752;45.648;13.764;2024-02-28T13:15:06;6.60;;;3.30;;
84187;SDS011;76752;45.648;13.764;2024-02-28T13:17:33;4.70;;;3.20;;
84187;SDS011;76752;45.648;13.764;2024-02-28T13:19:58;4.22;;;3.25;;
84187;SDS011;76752;45.648;13.764;2024-02-28T13:22:24;7.18;;;3.15;;
84187;SDS011;76752;45.648;13.764;2024-02-28T13:24:50;5.78;;;3.28;;
84187;SDS011;76752;45.648;13.764;2024-02-28T13:27:16;3.28;;;2.78;;
84187;SDS011;76752;45.648;13.764;2024-02-28T13:29:42;7.25;;;3.58;;
84187;SDS011;76752;45.648;13.764;2024-02-28T13:32:08;13.18;;;4.55;;
84187;SDS011;76752;45.648;13.764;2024-02-28T13:34:34;5.43;;;4.30;;
84187;SDS011;76752;45.648;13.764;2024-02-28T13:37:00;8.98;;;4.38;;
84187;SDS011;76752;45.648;13.764;2024-02-28T13:39:25;11.40;;;4.78;;
84187;SDS011;76752;45.648;13.764;2024-02-28T13:41:52;12.43;;;4.90;;
84187;SDS011;76752;45.648;13.764;2024-02-28T13:44:19;14.35;;;4.63;;
84187;SDS011;76752;45.648;13.764;2024-02-28T13:46:45;10.05;;;5.00;;
84187;SDS011;76752;45.648;13.764;2024-02-28T13:49:12;13.63;;;4.90;;
84187;SDS011;76752;45.648;13.764;2024-02-28T13:51:38;7.50;;;4.47;;
84187;SDS011;76752;45.648;13.764;2024-02-28T13:54:04;8.32;;;4.55;;
84187;SDS011;76752;45.648;13.764;2024-02-28T13:56:30;12.15;;;5.10;;
84187;SDS011;76752;45.648;13.764;2024-02-28T13:58:56;10.80;;;4.93;;
84187;SDS011;76752;45.648;13.764;2024-02-28T14:01:23;11.68;;;4.70;;
84187;SDS011;76752;45.648;13.764;2024-02-28T14:03:49;13.15;;;4.70;;
84187;SDS011;76752;45.648;13.764;2024-02-28T14:06:15;13.45;;;4.85;;
84187;SDS011;76752;45.648;13.764;2024-02-28T14:08:41;8.13;;;4.10;;
84187;SDS011;76752;45.648;13.764;2024-02-28T14:11:07;8.75;;;4.35;;
84187;SDS011;76752;45.648;13.764;2024-02-28T14:13:33;15.98;;;5.20;;
84187;SDS011;76752;45.648;13.764;2024-02-28T14:15:59;9.15;;;4.43;;
84187;SDS011;76752;45.648;13.764;2024-02-28T14:18:24;8.63;;;4.30;;
84187;SDS011;76752;45.648;13.764;2024-02-28T14:20:50;17.85;;;4.63;;
84187;SDS011;76752;45.648;13.764;2024-02-28T14:23:16;9.85;;;4.30;;
84187;SDS011;76752;45.648;13.764;2024-02-28T14:25:42;10.65;;;4.47;;
84187;SDS011;76752;45.648;13.764;2024-02-28T14:28:09;12.43;;;4.22;;